sensor_id;sensor_type;location;lat;lon;timestamp;temperature;humidity
2571;DHT22;1295;51.130;6.732;2022-11-21T00:00:27;7.30;99.90
2571;DHT22;1295;51.130;6.732;2022-11-21T00:02:52;7.30;99.90
2571;DHT22;1295;51.130;6.732;2022-11-21T00:05:18;7.30;99.90
2571;DHT22;1295;51.130;6.732;2022-11-21T00:07:44;7.30;99.90
2571;DHT22;1295;51.130;6.732;2022-11-21T00:10:10;7.30;99.90
2571;DHT22;1295;51.130;6.732;2022-11-21T00:12:35;7.30;99.90
2571;DHT22;1295;51.130;6.732;2022-11-21T00:15:01;7.30;99.90
2571;DHT22;1295;51.130;6.732;2022-11-21T00:17:27;7.30;99.90
2571;DHT22;1295;51.130;6.732;2022-11-21T00:19:53;7.30;99.90
2571;DHT22;1295;51.130;6.732;2022-11-21T00:22:19;7.30;99.90
2571;DHT22;1295;51.130;6.732;2022-11-21T00:24:44;7.30;99.90
2571;DHT22;1295;51.130;6.732;2022-11-21T00:27:10;7.40;99.90
2571;DHT22;1295;51.130;6.732;2022-11-21T00:29:36;7.50;99.90
2571;DHT22;1295;51.130;6.732;2022-11-21T00:32:01;7.50;99.90
2571;DHT22;1295;51.130;6.732;2022-11-21T00:34:27;7.40;99.90
2571;DHT22;1295;51.130;6.732;2022-11-21T00:36:53;7.40;99.90
2571;DHT22;1295;51.130;6.732;2022-11-21T00:39:18;7.40;99.90
2571;DHT22;1295;51.130;6.732;2022-11-21T00:41:44;7.40;99.90
2571;DHT22;1295;51.130;6.732;2022-11-21T00:44:09;7.40;99.90
2571;DHT22;1295;51.130;6.732;2022-11-21T00:46:35;7.30;99.90
2571;DHT22;1295;51.130;6.732;2022-11-21T00:49:08;7.20;99.90
2571;DHT22;1295;51.130;6.732;2022-11-21T00:51:33;7.30;99.90
2571;DHT22;1295;51.130;6.732;2022-11-21T00:53:59;7.30;99.90
2571;DHT22;1295;51.130;6.732;2022-11-21T00:56:25;7.30;99.90
2571;DHT22;1295;51.130;6.732;2022-11-21T00:58:51;7.30;99.90
2571;DHT22;1295;51.130;6.732;2022-11-21T01:01:17;7.30;99.90
2571;DHT22;1295;51.130;6.732;2022-11-21T01:03:42;7.40;99.90
2571;DHT22;1295;51.130;6.732;2022-11-21T01:06:09;7.30;99.90
2571;DHT22;1295;51.130;6.732;2022-11-21T01:08:34;7.40;99.90
2571;DHT22;1295;51.130;6.732;2022-11-21T01:11:03;7.30;99.90
2571;DHT22;1295;51.130;6.732;2022-11-21T01:13:27;7.30;99.90
2571;DHT22;1295;51.130;6.732;2022-11-21T01:15:53;7.30;99.90
2571;DHT22;1295;51.130;6.732;2022-11-21T01:18:19;7.40;99.90
2571;DHT22;1295;51.130;6.732;2022-11-21T01:20:44;7.40;99.90
2571;DHT22;1295;51.130;6.732;2022-11-21T01:23:10;7.30;99.90
2571;DHT22;1295;51.130;6.732;2022-11-21T01:25:36;7.30;99.90
2571;DHT22;1295;51.130;6.732;2022-11-21T01:28:02;7.30;99.90
2571;DHT22;1295;51.130;6.732;2022-11-21T01:30:28;7.30;99.90
2571;DHT22;1295;51.130;6.732;2022-11-21T01:32:53;7.30;99.90
2571;DHT22;1295;51.130;6.732;2022-11-21T01:35:19;7.40;99.90
2571;DHT22;1295;51.130;6.732;2022-11-21T01:37:45;7.30;99.90
2571;DHT22;1295;51.130;6.732;2022-11-21T01:40:11;7.30;99.90
2571;DHT22;1295;51.130;6.732;2022-11-21T01:47:53;7.40;99.90
2571;DHT22;1295;51.130;6.732;2022-11-21T01:50:18;7.50;99.90
2571;DHT22;1295;51.130;6.732;2022-11-21T01:52:44;7.50;99.90
2571;DHT22;1295;51.130;6.732;2022-11-21T01:55:10;7.40;99.90
2571;DHT22;1295;51.130;6.732;2022-11-21T01:57:43;7.30;99.90
2571;DHT22;1295;51.130;6.732;2022-11-21T02:00:14;7.40;99.90
2571;DHT22;1295;51.130;6.732;2022-11-21T02:02:38;7.50;99.90
2571;DHT22;1295;51.130;6.732;2022-11-21T02:05:04;7.50;99.90
2571;DHT22;1295;51.130;6.732;2022-11-21T02:07:30;7.50;99.90
2571;DHT22;1295;51.130;6.732;2022-11-21T02:09:56;7.60;99.90
2571;DHT22;1295;51.130;6.732;2022-11-21T02:12:28;7.60;99.90
2571;DHT22;1295;51.130;6.732;2022-11-21T02:17:35;7.50;99.90
2571;DHT22;1295;51.130;6.732;2022-11-21T02:20:04;7.50;99.90
2571;DHT22;1295;51.130;6.732;2022-11-21T02:22:34;7.50;99.90
2571;DHT22;1295;51.130;6.732;2022-11-21T02:25:05;7.50;99.90
2571;DHT22;1295;51.130;6.732;2022-11-21T02:27:29;7.50;99.90
2571;DHT22;1295;51.130;6.732;2022-11-21T02:29:55;7.50;99.90
2571;DHT22;1295;51.130;6.732;2022-11-21T02:32:22;7.50;99.90
2571;DHT22;1295;51.130;6.732;2022-11-21T02:34:47;7.60;99.90
2571;DHT22;1295;51.130;6.732;2022-11-21T02:37:13;7.50;99.90
2571;DHT22;1295;51.130;6.732;2022-11-21T02:39:38;7.50;99.90
2571;DHT22;1295;51.130;6.732;2022-11-21T02:42:11;7.50;99.90
2571;DHT22;1295;51.130;6.732;2022-11-21T02:44:39;7.50;99.90
2571;DHT22;1295;51.130;6.732;2022-11-21T02:47:04;7.50;99.90
2571;DHT22;1295;51.130;6.732;2022-11-21T02:49:33;7.50;99.90
2571;DHT22;1295;51.130;6.732;2022-11-21T02:51:55;7.50;99.90
2571;DHT22;1295;51.130;6.732;2022-11-21T02:54:20;7.50;99.90
2571;DHT22;1295;51.130;6.732;2022-11-21T02:56:46;7.50;99.90
2571;DHT22;1295;51.130;6.732;2022-11-21T02:59:12;7.60;99.90
2571;DHT22;1295;51.130;6.732;2022-11-21T03:01:38;7.50;99.90
2571;DHT22;1295;51.130;6.732;2022-11-21T03:04:04;7.50;99.90
2571;DHT22;1295;51.130;6.732;2022-11-21T03:06:29;7.60;99.90
2571;DHT22;1295;51.130;6.732;2022-11-21T03:08:55;7.60;99.90
2571;DHT22;1295;51.130;6.732;2022-11-21T03:11:21;7.50;99.90
2571;DHT22;1295;51.130;6.732;2022-11-21T03:13:46;7.50;99.90
2571;DHT22;1295;51.130;6.732;2022-11-21T03:16:12;7.50;99.90
2571;DHT22;1295;51.130;6.732;2022-11-21T03:18:38;7.50;99.90
2571;DHT22;1295;51.130;6.732;2022-11-21T03:21:03;7.50;99.90
2571;DHT22;1295;51.130;6.732;2022-11-21T03:23:29;7.50;99.90
2571;DHT22;1295;51.130;6.732;2022-11-21T03:25:55;7.50;99.90
2571;DHT22;1295;51.130;6.732;2022-11-21T03:28:21;7.50;99.90
2571;DHT22;1295;51.130;6.732;2022-11-21T03:30:47;7.50;99.90
2571;DHT22;1295;51.130;6.732;2022-11-21T03:33:12;7.50;99.90
2571;DHT22;1295;51.130;6.732;2022-11-21T03:35:38;7.40;99.90
2571;DHT22;1295;51.130;6.732;2022-11-21T03:38:04;7.50;99.90
2571;DHT22;1295;51.130;6.732;2022-11-21T03:40:30;7.50;99.90
2571;DHT22;1295;51.130;6.732;2022-11-21T03:42:56;7.50;99.90
2571;DHT22;1295;51.130;6.732;2022-11-21T03:45:21;7.50;99.90
2571;DHT22;1295;51.130;6.732;2022-11-21T03:47:48;7.50;99.90
2571;DHT22;1295;51.130;6.732;2022-11-21T03:50:13;7.50;99.90
2571;DHT22;1295;51.130;6.732;2022-11-21T03:52:39;7.50;99.90
2571;DHT22;1295;51.130;6.732;2022-11-21T03:55:05;7.50;99.90
2571;DHT22;1295;51.130;6.732;2022-11-21T03:57:31;7.50;99.90
2571;DHT22;1295;51.130;6.732;2022-11-21T03:59:56;7.50;99.90
2571;DHT22;1295;51.130;6.732;2022-11-21T04:02:27;7.50;99.90
2571;DHT22;1295;51.130;6.732;2022-11-21T04:04:58;7.50;99.90
2571;DHT22;1295;51.130;6.732;2022-11-21T04:07:23;7.50;99.90
2571;DHT22;1295;51.130;6.732;2022-11-21T04:09:49;7.50;99.90
2571;DHT22;1295;51.130;6.732;2022-11-21T04:12:14;7.60;99.90
2571;DHT22;1295;51.130;6.732;2022-11-21T04:14:41;7.50;99.90
2571;DHT22;1295;51.130;6.732;2022-11-21T04:17:06;7.50;99.90
2571;DHT22;1295;51.130;6.732;2022-11-21T04:19:32;7.50;99.90
2571;DHT22;1295;51.130;6.732;2022-11-21T04:21:58;7.50;99.90
2571;DHT22;1295;51.130;6.732;2022-11-21T04:24:23;7.50;99.90
2571;DHT22;1295;51.130;6.732;2022-11-21T04:26:49;7.50;99.90
2571;DHT22;1295;51.130;6.732;2022-11-21T04:29:15;7.60;99.90
2571;DHT22;1295;51.130;6.732;2022-11-21T04:31:40;7.50;99.90
2571;DHT22;1295;51.130;6.732;2022-11-21T04:34:06;7.50;99.90
2571;DHT22;1295;51.130;6.732;2022-11-21T04:36:31;7.50;99.90
2571;DHT22;1295;51.130;6.732;2022-11-21T04:38:57;7.60;99.90
2571;DHT22;1295;51.130;6.732;2022-11-21T04:41:23;7.50;99.90
2571;DHT22;1295;51.130;6.732;2022-11-21T04:43:48;7.50;99.90
2571;DHT22;1295;51.130;6.732;2022-11-21T04:46:14;7.50;99.90
2571;DHT22;1295;51.130;6.732;2022-11-21T04:48:39;7.60;99.90
2571;DHT22;1295;51.130;6.732;2022-11-21T04:51:05;7.60;99.90
2571;DHT22;1295;51.130;6.732;2022-11-21T04:53:31;7.50;99.90
2571;DHT22;1295;51.130;6.732;2022-11-21T04:55:57;7.50;99.90
2571;DHT22;1295;51.130;6.732;2022-11-21T04:58:23;7.50;99.90
2571;DHT22;1295;51.130;6.732;2022-11-21T05:00:48;7.50;99.90
2571;DHT22;1295;51.130;6.732;2022-11-21T05:03:14;7.50;99.90
2571;DHT22;1295;51.130;6.732;2022-11-21T05:05:40;7.50;99.90
2571;DHT22;1295;51.130;6.732;2022-11-21T05:08:05;7.50;99.90
2571;DHT22;1295;51.130;6.732;2022-11-21T05:10:31;7.50;99.90
2571;DHT22;1295;51.130;6.732;2022-11-21T05:12:58;7.50;99.90
2571;DHT22;1295;51.130;6.732;2022-11-21T05:15:29;7.50;99.90
2571;DHT22;1295;51.130;6.732;2022-11-21T05:17:57;7.50;99.90
2571;DHT22;1295;51.130;6.732;2022-11-21T05:20:20;7.50;99.90
2571;DHT22;1295;51.130;6.732;2022-11-21T05:22:49;7.50;99.90
2571;DHT22;1295;51.130;6.732;2022-11-21T05:25:12;7.50;99.90
2571;DHT22;1295;51.130;6.732;2022-11-21T05:27:37;7.50;99.90
2571;DHT22;1295;51.130;6.732;2022-11-21T05:30:04;7.50;99.90
2571;DHT22;1295;51.130;6.732;2022-11-21T05:32:29;7.50;99.90
2571;DHT22;1295;51.130;6.732;2022-11-21T05:34:55;7.50;99.90
2571;DHT22;1295;51.130;6.732;2022-11-21T05:37:21;7.50;99.90
2571;DHT22;1295;51.130;6.732;2022-11-21T05:39:47;7.50;99.90
2571;DHT22;1295;51.130;6.732;2022-11-21T05:42:13;7.50;99.90
2571;DHT22;1295;51.130;6.732;2022-11-21T05:44:39;7.50;99.90
2571;DHT22;1295;51.130;6.732;2022-11-21T05:47:05;7.50;99.90
2571;DHT22;1295;51.130;6.732;2022-11-21T05:49:30;7.50;99.90
2571;DHT22;1295;51.130;6.732;2022-11-21T05:51:56;7.50;99.90
2571;DHT22;1295;51.130;6.732;2022-11-21T05:54:22;7.50;99.90
2571;DHT22;1295;51.130;6.732;2022-11-21T05:56:47;7.50;99.90
2571;DHT22;1295;51.130;6.732;2022-11-21T05:59:13;7.50;99.90
2571;DHT22;1295;51.130;6.732;2022-11-21T06:01:38;7.50;99.90
2571;DHT22;1295;51.130;6.732;2022-11-21T06:04:11;7.50;99.90
2571;DHT22;1295;51.130;6.732;2022-11-21T06:06:37;7.50;99.90
2571;DHT22;1295;51.130;6.732;2022-11-21T06:09:03;7.40;99.90
2571;DHT22;1295;51.130;6.732;2022-11-21T06:11:28;7.40;99.90
2571;DHT22;1295;51.130;6.732;2022-11-21T06:13:54;7.40;99.90
2571;DHT22;1295;51.130;6.732;2022-11-21T06:16:20;7.40;99.90
2571;DHT22;1295;51.130;6.732;2022-11-21T06:18:46;7.30;99.90
2571;DHT22;1295;51.130;6.732;2022-11-21T06:21:14;7.40;99.90
2571;DHT22;1295;51.130;6.732;2022-11-21T06:23:40;7.50;99.90
2571;DHT22;1295;51.130;6.732;2022-11-21T06:26:06;7.50;99.90
2571;DHT22;1295;51.130;6.732;2022-11-21T06:28:31;7.50;99.90
2571;DHT22;1295;51.130;6.732;2022-11-21T06:31:00;7.50;99.90
2571;DHT22;1295;51.130;6.732;2022-11-21T06:33:22;7.50;99.90
2571;DHT22;1295;51.130;6.732;2022-11-21T06:35:47;7.50;99.90
2571;DHT22;1295;51.130;6.732;2022-11-21T06:38:13;7.50;99.90
2571;DHT22;1295;51.130;6.732;2022-11-21T06:40:39;7.50;99.90
2571;DHT22;1295;51.130;6.732;2022-11-21T06:43:04;7.50;99.90
2571;DHT22;1295;51.130;6.732;2022-11-21T06:45:30;7.40;99.90
2571;DHT22;1295;51.130;6.732;2022-11-21T06:47:56;7.20;99.90
2571;DHT22;1295;51.130;6.732;2022-11-21T06:50:21;7.10;99.90
2571;DHT22;1295;51.130;6.732;2022-11-21T06:52:47;7.20;99.90
2571;DHT22;1295;51.130;6.732;2022-11-21T06:55:13;7.30;99.90
2571;DHT22;1295;51.130;6.732;2022-11-21T06:57:38;7.40;99.90
2571;DHT22;1295;51.130;6.732;2022-11-21T07:00:05;7.40;99.90
2571;DHT22;1295;51.130;6.732;2022-11-21T07:02:31;7.20;99.90
2571;DHT22;1295;51.130;6.732;2022-11-21T07:04:57;7.20;99.90
2571;DHT22;1295;51.130;6.732;2022-11-21T07:07:23;7.10;99.90
2571;DHT22;1295;51.130;6.732;2022-11-21T07:09:49;7.00;99.90
2571;DHT22;1295;51.130;6.732;2022-11-21T07:12:15;7.00;99.90
2571;DHT22;1295;51.130;6.732;2022-11-21T07:14:47;7.00;99.90
2571;DHT22;1295;51.130;6.732;2022-11-21T07:17:13;6.90;99.90
2571;DHT22;1295;51.130;6.732;2022-11-21T07:19:39;6.80;99.90
2571;DHT22;1295;51.130;6.732;2022-11-21T07:22:04;7.00;99.90
2571;DHT22;1295;51.130;6.732;2022-11-21T07:24:30;7.10;99.90
2571;DHT22;1295;51.130;6.732;2022-11-21T07:26:55;7.00;99.90
2571;DHT22;1295;51.130;6.732;2022-11-21T07:29:22;6.80;99.90
2571;DHT22;1295;51.130;6.732;2022-11-21T07:31:47;6.70;99.90
2571;DHT22;1295;51.130;6.732;2022-11-21T07:34:13;7.00;99.90
2571;DHT22;1295;51.130;6.732;2022-11-21T07:36:39;7.10;99.90
2571;DHT22;1295;51.130;6.732;2022-11-21T07:39:04;7.20;99.90
2571;DHT22;1295;51.130;6.732;2022-11-21T07:41:30;7.00;99.90
2571;DHT22;1295;51.130;6.732;2022-11-21T07:43:56;7.10;99.90
2571;DHT22;1295;51.130;6.732;2022-11-21T07:46:21;7.10;99.90
2571;DHT22;1295;51.130;6.732;2022-11-21T07:48:47;7.20;99.90
2571;DHT22;1295;51.130;6.732;2022-11-21T07:51:12;7.30;99.90
2571;DHT22;1295;51.130;6.732;2022-11-21T07:53:38;7.20;99.90
2571;DHT22;1295;51.130;6.732;2022-11-21T07:56:04;7.30;99.90
2571;DHT22;1295;51.130;6.732;2022-11-21T07:58:30;7.40;99.90
2571;DHT22;1295;51.130;6.732;2022-11-21T08:00:56;7.30;99.90
2571;DHT22;1295;51.130;6.732;2022-11-21T08:03:22;7.30;99.90
2571;DHT22;1295;51.130;6.732;2022-11-21T08:05:47;7.40;99.90
2571;DHT22;1295;51.130;6.732;2022-11-21T08:08:13;7.40;99.90
2571;DHT22;1295;51.130;6.732;2022-11-21T08:10:40;7.40;99.90
2571;DHT22;1295;51.130;6.732;2022-11-21T08:13:04;7.40;99.90
2571;DHT22;1295;51.130;6.732;2022-11-21T08:15:30;7.40;99.90
2571;DHT22;1295;51.130;6.732;2022-11-21T08:17:55;7.40;99.90
2571;DHT22;1295;51.130;6.732;2022-11-21T08:20:21;7.10;99.90
2571;DHT22;1295;51.130;6.732;2022-11-21T08:22:47;7.30;99.90
2571;DHT22;1295;51.130;6.732;2022-11-21T08:25:12;7.30;99.90
2571;DHT22;1295;51.130;6.732;2022-11-21T08:27:38;7.30;99.90
2571;DHT22;1295;51.130;6.732;2022-11-21T08:30:06;7.10;99.90
2571;DHT22;1295;51.130;6.732;2022-11-21T08:32:32;7.20;99.90
2571;DHT22;1295;51.130;6.732;2022-11-21T08:34:57;7.20;99.90
2571;DHT22;1295;51.130;6.732;2022-11-21T08:37:23;7.10;99.90
2571;DHT22;1295;51.130;6.732;2022-11-21T08:39:49;7.10;99.90
2571;DHT22;1295;51.130;6.732;2022-11-21T08:42:14;7.00;99.90
2571;DHT22;1295;51.130;6.732;2022-11-21T08:44:40;6.80;99.90
2571;DHT22;1295;51.130;6.732;2022-11-21T08:47:05;7.00;99.90
2571;DHT22;1295;51.130;6.732;2022-11-21T08:49:31;6.90;99.90
2571;DHT22;1295;51.130;6.732;2022-11-21T08:51:57;7.00;99.90
2571;DHT22;1295;51.130;6.732;2022-11-21T08:54:23;7.00;99.90
2571;DHT22;1295;51.130;6.732;2022-11-21T08:56:53;6.90;99.90
2571;DHT22;1295;51.130;6.732;2022-11-21T08:59:19;6.70;99.90
2571;DHT22;1295;51.130;6.732;2022-11-21T09:01:44;6.80;99.90
2571;DHT22;1295;51.130;6.732;2022-11-21T09:04:10;6.90;99.90
2571;DHT22;1295;51.130;6.732;2022-11-21T09:06:36;7.00;99.90
2571;DHT22;1295;51.130;6.732;2022-11-21T09:09:03;7.10;99.90
2571;DHT22;1295;51.130;6.732;2022-11-21T09:11:27;7.20;99.90
2571;DHT22;1295;51.130;6.732;2022-11-21T09:13:58;7.20;99.90
2571;DHT22;1295;51.130;6.732;2022-11-21T09:16:30;7.20;99.90
2571;DHT22;1295;51.130;6.732;2022-11-21T09:19:02;7.20;99.90
2571;DHT22;1295;51.130;6.732;2022-11-21T09:21:27;7.00;99.90
2571;DHT22;1295;51.130;6.732;2022-11-21T09:23:53;7.20;99.90
2571;DHT22;1295;51.130;6.732;2022-11-21T09:26:19;7.50;99.90
2571;DHT22;1295;51.130;6.732;2022-11-21T09:28:44;7.40;99.90
2571;DHT22;1295;51.130;6.732;2022-11-21T09:31:10;7.30;99.90
2571;DHT22;1295;51.130;6.732;2022-11-21T09:33:36;7.30;99.90
2571;DHT22;1295;51.130;6.732;2022-11-21T09:36:02;7.30;99.90
2571;DHT22;1295;51.130;6.732;2022-11-21T09:38:28;7.30;99.90
2571;DHT22;1295;51.130;6.732;2022-11-21T09:40:57;7.20;99.90
2571;DHT22;1295;51.130;6.732;2022-11-21T09:43:42;7.20;99.90
2571;DHT22;1295;51.130;6.732;2022-11-21T09:46:11;7.20;99.90
2571;DHT22;1295;51.130;6.732;2022-11-21T09:48:54;7.90;99.90
2571;DHT22;1295;51.130;6.732;2022-11-21T09:51:18;7.90;99.90
2571;DHT22;1295;51.130;6.732;2022-11-21T09:53:52;8.20;99.90
2571;DHT22;1295;51.130;6.732;2022-11-21T09:56:16;8.20;99.90
2571;DHT22;1295;51.130;6.732;2022-11-21T09:58:43;8.50;99.90
2571;DHT22;1295;51.130;6.732;2022-11-21T10:01:11;8.20;99.90
2571;DHT22;1295;51.130;6.732;2022-11-21T10:03:40;8.30;99.90
2571;DHT22;1295;51.130;6.732;2022-11-21T10:06:10;8.30;99.90
2571;DHT22;1295;51.130;6.732;2022-11-21T10:08:40;8.60;99.90
2571;DHT22;1295;51.130;6.732;2022-11-21T10:11:10;8.60;99.90
2571;DHT22;1295;51.130;6.732;2022-11-21T10:13:39;9.00;99.90
2571;DHT22;1295;51.130;6.732;2022-11-21T10:16:22;9.20;99.90
2571;DHT22;1295;51.130;6.732;2022-11-21T10:18:54;9.20;99.90
2571;DHT22;1295;51.130;6.732;2022-11-21T10:24:27;8.80;99.90
2571;DHT22;1295;51.130;6.732;2022-11-21T10:26:59;8.80;99.90
2571;DHT22;1295;51.130;6.732;2022-11-21T10:29:26;9.00;99.90
2571;DHT22;1295;51.130;6.732;2022-11-21T10:31:51;8.70;99.90
2571;DHT22;1295;51.130;6.732;2022-11-21T10:34:34;8.60;99.90
2571;DHT22;1295;51.130;6.732;2022-11-21T10:37:00;8.60;99.90
2571;DHT22;1295;51.130;6.732;2022-11-21T10:39:32;8.40;99.90
2571;DHT22;1295;51.130;6.732;2022-11-21T10:41:54;8.20;99.90
2571;DHT22;1295;51.130;6.732;2022-11-21T10:44:26;8.40;99.90
2571;DHT22;1295;51.130;6.732;2022-11-21T10:46:58;8.40;99.90
2571;DHT22;1295;51.130;6.732;2022-11-21T10:49:25;8.40;99.90
2571;DHT22;1295;51.130;6.732;2022-11-21T10:51:59;8.30;99.90
2571;DHT22;1295;51.130;6.732;2022-11-21T10:54:22;8.50;99.90
2571;DHT22;1295;51.130;6.732;2022-11-21T10:56:55;8.50;99.90
2571;DHT22;1295;51.130;6.732;2022-11-21T10:59:21;8.60;99.90
2571;DHT22;1295;51.130;6.732;2022-11-21T11:01:52;8.70;99.90
2571;DHT22;1295;51.130;6.732;2022-11-21T11:04:17;8.70;99.90
2571;DHT22;1295;51.130;6.732;2022-11-21T11:06:44;8.50;99.90
2571;DHT22;1295;51.130;6.732;2022-11-21T11:11:41;8.20;99.90
2571;DHT22;1295;51.130;6.732;2022-11-21T11:14:11;8.10;99.90
2571;DHT22;1295;51.130;6.732;2022-11-21T11:16:34;8.10;99.90
2571;DHT22;1295;51.130;6.732;2022-11-21T11:19:00;8.10;99.90
2571;DHT22;1295;51.130;6.732;2022-11-21T11:21:27;8.10;99.90
2571;DHT22;1295;51.130;6.732;2022-11-21T11:23:52;8.20;99.90
2571;DHT22;1295;51.130;6.732;2022-11-21T11:26:19;8.10;99.90
2571;DHT22;1295;51.130;6.732;2022-11-21T11:28:43;8.10;99.90
2571;DHT22;1295;51.130;6.732;2022-11-21T11:31:08;8.40;99.90
2571;DHT22;1295;51.130;6.732;2022-11-21T11:33:50;8.70;99.90
2571;DHT22;1295;51.130;6.732;2022-11-21T11:38:52;8.40;99.90
2571;DHT22;1295;51.130;6.732;2022-11-21T11:41:26;8.40;99.90
2571;DHT22;1295;51.130;6.732;2022-11-21T11:43:57;8.40;99.90
2571;DHT22;1295;51.130;6.732;2022-11-21T11:46:57;8.40;99.90
2571;DHT22;1295;51.130;6.732;2022-11-21T11:49:31;8.50;99.90
2571;DHT22;1295;51.130;6.732;2022-11-21T11:51:55;8.70;99.90
2571;DHT22;1295;51.130;6.732;2022-11-21T11:54:24;8.50;99.90
2571;DHT22;1295;51.130;6.732;2022-11-21T11:56:49;8.50;99.90
2571;DHT22;1295;51.130;6.732;2022-11-21T11:59:21;8.50;99.90
2571;DHT22;1295;51.130;6.732;2022-11-21T12:01:50;8.50;99.90
2571;DHT22;1295;51.130;6.732;2022-11-21T12:04:17;8.40;99.90
2571;DHT22;1295;51.130;6.732;2022-11-21T12:06:49;8.60;99.90
2571;DHT22;1295;51.130;6.732;2022-11-21T12:09:21;8.80;99.90
2571;DHT22;1295;51.130;6.732;2022-11-21T12:11:54;8.90;99.90
2571;DHT22;1295;51.130;6.732;2022-11-21T12:14:49;8.90;99.90
2571;DHT22;1295;51.130;6.732;2022-11-21T12:17:19;9.00;99.90
2571;DHT22;1295;51.130;6.732;2022-11-21T12:19:44;9.90;99.90
2571;DHT22;1295;51.130;6.732;2022-11-21T12:22:10;10.10;99.90
2571;DHT22;1295;51.130;6.732;2022-11-21T12:24:35;10.70;99.90
2571;DHT22;1295;51.130;6.732;2022-11-21T12:27:16;11.20;99.90
2571;DHT22;1295;51.130;6.732;2022-11-21T12:29:49;11.20;99.90
2571;DHT22;1295;51.130;6.732;2022-11-21T12:32:43;11.30;99.90
2571;DHT22;1295;51.130;6.732;2022-11-21T12:38:07;10.80;99.90
2571;DHT22;1295;51.130;6.732;2022-11-21T12:40:38;11.30;99.90
2571;DHT22;1295;51.130;6.732;2022-11-21T12:43:10;11.20;99.90
2571;DHT22;1295;51.130;6.732;2022-11-21T12:45:38;11.20;99.90
2571;DHT22;1295;51.130;6.732;2022-11-21T12:51:21;11.10;99.90
2571;DHT22;1295;51.130;6.732;2022-11-21T12:54:10;10.90;99.90
2571;DHT22;1295;51.130;6.732;2022-11-21T12:56:42;10.60;99.90
2571;DHT22;1295;51.130;6.732;2022-11-21T12:59:05;10.80;99.90
2571;DHT22;1295;51.130;6.732;2022-11-21T13:01:37;10.20;99.90
2571;DHT22;1295;51.130;6.732;2022-11-21T13:04:04;10.00;99.90
2571;DHT22;1295;51.130;6.732;2022-11-21T13:06:30;10.50;99.90
2571;DHT22;1295;51.130;6.732;2022-11-21T13:08:54;10.80;99.90
2571;DHT22;1295;51.130;6.732;2022-11-21T13:11:40;10.30;99.90
2571;DHT22;1295;51.130;6.732;2022-11-21T13:14:24;10.00;99.90
2571;DHT22;1295;51.130;6.732;2022-11-21T13:16:49;9.50;99.90
2571;DHT22;1295;51.130;6.732;2022-11-21T13:19:16;9.60;99.90
2571;DHT22;1295;51.130;6.732;2022-11-21T13:21:44;9.70;99.90
2571;DHT22;1295;51.130;6.732;2022-11-21T13:24:08;9.30;99.90
2571;DHT22;1295;51.130;6.732;2022-11-21T13:26:51;9.00;99.90
2571;DHT22;1295;51.130;6.732;2022-11-21T13:29:16;9.00;99.90
2571;DHT22;1295;51.130;6.732;2022-11-21T13:31:41;9.40;99.90
2571;DHT22;1295;51.130;6.732;2022-11-21T13:36:45;9.20;99.90
2571;DHT22;1295;51.130;6.732;2022-11-21T13:39:30;9.10;99.90
2571;DHT22;1295;51.130;6.732;2022-11-21T13:42:02;9.30;99.90
2571;DHT22;1295;51.130;6.732;2022-11-21T13:44:36;9.30;99.90
2571;DHT22;1295;51.130;6.732;2022-11-21T13:47:34;9.20;99.90
2571;DHT22;1295;51.130;6.732;2022-11-21T13:50:04;9.20;99.90
2571;DHT22;1295;51.130;6.732;2022-11-21T13:55:50;8.90;99.90
2571;DHT22;1295;51.130;6.732;2022-11-21T13:58:25;8.80;99.90
2571;DHT22;1295;51.130;6.732;2022-11-21T14:01:06;8.80;99.90
2571;DHT22;1295;51.130;6.732;2022-11-21T14:03:52;9.00;99.90
2571;DHT22;1295;51.130;6.732;2022-11-21T14:06:21;8.70;99.90
2571;DHT22;1295;51.130;6.732;2022-11-21T14:08:44;8.70;99.90
2571;DHT22;1295;51.130;6.732;2022-11-21T14:11:18;8.80;99.90
2571;DHT22;1295;51.130;6.732;2022-11-21T14:13:43;9.00;99.90
2571;DHT22;1295;51.130;6.732;2022-11-21T14:16:21;8.80;99.90
2571;DHT22;1295;51.130;6.732;2022-11-21T14:18:43;8.80;99.90
2571;DHT22;1295;51.130;6.732;2022-11-21T14:21:19;8.90;99.90
2571;DHT22;1295;51.130;6.732;2022-11-21T14:23:44;8.80;99.90
2571;DHT22;1295;51.130;6.732;2022-11-21T14:26:11;8.80;99.90
2571;DHT22;1295;51.130;6.732;2022-11-21T14:28:36;8.70;99.90
2571;DHT22;1295;51.130;6.732;2022-11-21T14:31:02;8.70;99.90
2571;DHT22;1295;51.130;6.732;2022-11-21T14:33:30;8.70;99.90
2571;DHT22;1295;51.130;6.732;2022-11-21T14:36:21;8.60;99.90
2571;DHT22;1295;51.130;6.732;2022-11-21T14:38:48;8.60;99.90
2571;DHT22;1295;51.130;6.732;2022-11-21T14:41:31;8.60;99.90
2571;DHT22;1295;51.130;6.732;2022-11-21T14:44:14;8.60;99.90
2571;DHT22;1295;51.130;6.732;2022-11-21T14:46:39;8.50;99.90
2571;DHT22;1295;51.130;6.732;2022-11-21T14:49:16;8.50;99.90
2571;DHT22;1295;51.130;6.732;2022-11-21T14:51:35;8.40;99.90
2571;DHT22;1295;51.130;6.732;2022-11-21T14:54:01;8.40;99.90
2571;DHT22;1295;51.130;6.732;2022-11-21T14:56:29;8.40;99.90
2571;DHT22;1295;51.130;6.732;2022-11-21T14:58:54;8.40;99.90
2571;DHT22;1295;51.130;6.732;2022-11-21T15:01:26;8.50;99.90
2571;DHT22;1295;51.130;6.732;2022-11-21T15:03:55;8.50;99.90
2571;DHT22;1295;51.130;6.732;2022-11-21T15:06:20;8.50;99.90
2571;DHT22;1295;51.130;6.732;2022-11-21T15:08:46;8.40;99.90
2571;DHT22;1295;51.130;6.732;2022-11-21T15:11:11;8.30;99.90
2571;DHT22;1295;51.130;6.732;2022-11-21T15:13:37;8.50;99.90
2571;DHT22;1295;51.130;6.732;2022-11-21T15:16:03;8.40;99.90
2571;DHT22;1295;51.130;6.732;2022-11-21T15:18:29;8.40;99.90
2571;DHT22;1295;51.130;6.732;2022-11-21T15:20:56;8.40;99.90
2571;DHT22;1295;51.130;6.732;2022-11-21T15:23:28;8.20;99.90
2571;DHT22;1295;51.130;6.732;2022-11-21T15:25:54;8.40;99.90
2571;DHT22;1295;51.130;6.732;2022-11-21T15:28:19;8.40;99.90
2571;DHT22;1295;51.130;6.732;2022-11-21T15:30:45;8.40;99.90
2571;DHT22;1295;51.130;6.732;2022-11-21T15:33:15;8.40;99.90
2571;DHT22;1295;51.130;6.732;2022-11-21T15:35:44;8.40;99.90
2571;DHT22;1295;51.130;6.732;2022-11-21T15:41:21;8.40;99.90
2571;DHT22;1295;51.130;6.732;2022-11-21T15:43:47;8.40;99.90
2571;DHT22;1295;51.130;6.732;2022-11-21T15:46:23;8.30;99.90
2571;DHT22;1295;51.130;6.732;2022-11-21T15:48:51;8.40;99.90
2571;DHT22;1295;51.130;6.732;2022-11-21T15:51:17;8.40;99.90
2571;DHT22;1295;51.130;6.732;2022-11-21T15:53:49;8.40;99.90
2571;DHT22;1295;51.130;6.732;2022-11-21T15:56:16;8.40;99.90
2571;DHT22;1295;51.130;6.732;2022-11-21T15:58:41;8.40;99.90
2571;DHT22;1295;51.130;6.732;2022-11-21T16:01:12;8.40;99.90
2571;DHT22;1295;51.130;6.732;2022-11-21T16:03:37;8.30;99.90
2571;DHT22;1295;51.130;6.732;2022-11-21T16:06:03;8.30;99.90
2571;DHT22;1295;51.130;6.732;2022-11-21T16:08:29;8.30;99.90
2571;DHT22;1295;51.130;6.732;2022-11-21T16:10:55;8.30;99.90
2571;DHT22;1295;51.130;6.732;2022-11-21T16:13:20;8.40;99.90
2571;DHT22;1295;51.130;6.732;2022-11-21T16:15:46;8.30;99.90
2571;DHT22;1295;51.130;6.732;2022-11-21T16:18:11;8.30;99.90
2571;DHT22;1295;51.130;6.732;2022-11-21T16:20:37;8.30;99.90
2571;DHT22;1295;51.130;6.732;2022-11-21T16:23:03;8.30;99.90
2571;DHT22;1295;51.130;6.732;2022-11-21T16:25:28;8.30;99.90
2571;DHT22;1295;51.130;6.732;2022-11-21T16:27:55;8.20;99.90
2571;DHT22;1295;51.130;6.732;2022-11-21T16:30:20;8.20;99.90
2571;DHT22;1295;51.130;6.732;2022-11-21T16:32:46;8.20;99.90
2571;DHT22;1295;51.130;6.732;2022-11-21T16:35:11;8.30;99.90
2571;DHT22;1295;51.130;6.732;2022-11-21T16:37:37;8.20;99.90
2571;DHT22;1295;51.130;6.732;2022-11-21T16:40:03;8.20;99.90
2571;DHT22;1295;51.130;6.732;2022-11-21T16:42:29;8.20;99.90
2571;DHT22;1295;51.130;6.732;2022-11-21T16:44:54;8.30;99.90
2571;DHT22;1295;51.130;6.732;2022-11-21T16:47:20;8.30;99.90
2571;DHT22;1295;51.130;6.732;2022-11-21T16:49:46;8.20;99.90